createdAt,value
2018-07-08T00:00:57.957Z,0.00
2018-07-08T00:01:57.956Z,0.00
2018-07-08T00:02:57.958Z,0.00
2018-07-08T00:03:57.957Z,0.00
2018-07-08T00:04:57.958Z,0.00
2018-07-08T00:05:57.958Z,0.00
2018-07-08T00:06:57.962Z,0.00
2018-07-08T00:07:57.959Z,0.00
2018-07-08T00:08:57.960Z,0.00
2018-07-08T00:09:57.959Z,0.00
2018-07-08T00:10:57.959Z,0.00
2018-07-08T00:11:57.960Z,0.00
2018-07-08T00:12:57.961Z,0.00
2018-07-08T00:13:57.960Z,0.00
2018-07-08T00:14:57.962Z,0.00
2018-07-08T00:15:57.962Z,0.00
2018-07-08T00:16:57.961Z,0.00
2018-07-08T00:17:57.961Z,0.00
2018-07-08T00:18:57.962Z,0.00
2018-07-08T00:19:57.963Z,0.00
2018-07-08T00:20:57.963Z,0.00
2018-07-08T00:21:57.963Z,0.00
2018-07-08T00:22:57.963Z,0.00
2018-07-08T00:23:57.963Z,0.00
2018-07-08T00:24:57.964Z,0.00
2018-07-08T00:25:57.964Z,0.00
2018-07-08T00:26:57.963Z,0.00
2018-07-08T00:27:57.963Z,0.00
2018-07-08T00:28:57.965Z,0.00
2018-07-08T00:29:57.964Z,0.00
2018-07-08T00:30:57.964Z,0.00
2018-07-08T00:31:57.965Z,0.00
2018-07-08T00:32:57.965Z,0.00
2018-07-08T00:33:57.966Z,0.00
2018-07-08T00:34:57.965Z,0.00
2018-07-08T00:35:57.966Z,0.00
2018-07-08T00:36:57.966Z,0.00
2018-07-08T00:37:57.967Z,0.00
2018-07-08T00:38:57.966Z,0.00
2018-07-08T00:39:58.024Z,0.00
2018-07-08T00:40:57.966Z,0.00
2018-07-08T00:41:57.967Z,0.00
2018-07-08T00:42:57.968Z,0.00
2018-07-08T00:43:57.966Z,0.00
2018-07-08T00:44:57.968Z,0.00
2018-07-08T00:45:57.966Z,0.00
2018-07-08T00:46:57.967Z,0.00
2018-07-08T00:47:57.967Z,0.00
2018-07-08T00:48:57.967Z,0.00
2018-07-08T00:49:57.967Z,0.00
2018-07-08T00:50:57.969Z,0.00
2018-07-08T00:51:57.968Z,0.00
2018-07-08T00:52:57.968Z,0.00
2018-07-08T00:53:57.968Z,0.00
2018-07-08T00:54:57.967Z,0.00
2018-07-08T00:55:57.968Z,0.00
2018-07-08T00:56:57.969Z,0.00
2018-07-08T00:57:57.967Z,0.00
2018-07-08T00:58:57.970Z,0.00
2018-07-08T00:59:57.968Z,0.00
2018-07-08T01:00:57.970Z,0.00
2018-07-08T01:01:57.968Z,0.00
2018-07-08T01:02:57.969Z,0.00
2018-07-08T01:03:57.970Z,0.00
2018-07-08T01:04:57.969Z,0.00
2018-07-08T01:05:57.968Z,0.00
2018-07-08T01:06:57.994Z,0.00
2018-07-08T01:07:57.969Z,0.00
2018-07-08T01:08:57.969Z,0.00
2018-07-08T01:09:57.968Z,0.00
2018-07-08T01:10:57.970Z,0.00
2018-07-08T01:11:57.969Z,0.00
2018-07-08T01:12:57.970Z,0.00
2018-07-08T01:13:57.967Z,0.00
2018-07-08T01:14:57.972Z,0.00
2018-07-08T01:15:57.969Z,0.00
2018-07-08T01:16:57.968Z,0.00
2018-07-08T01:17:57.972Z,0.00
2018-07-08T01:18:57.969Z,0.00
2018-07-08T01:19:57.969Z,0.00
2018-07-08T01:20:57.968Z,0.00
2018-07-08T01:21:57.967Z,0.00
2018-07-08T01:22:57.971Z,0.00
2018-07-08T01:23:57.968Z,0.00
2018-07-08T01:24:57.969Z,0.00
2018-07-08T01:25:57.968Z,0.00
2018-07-08T01:26:57.968Z,0.00
2018-07-08T01:27:57.968Z,0.00
2018-07-08T01:28:57.969Z,0.00
2018-07-08T01:29:57.968Z,0.00
2018-07-08T01:30:57.968Z,0.00
2018-07-08T01:31:57.968Z,0.00
2018-07-08T01:32:57.968Z,0.00
2018-07-08T01:33:57.968Z,0.00
2018-07-08T01:34:57.968Z,0.00
2018-07-08T01:35:57.967Z,0.00
2018-07-08T01:37:31.178Z,0.00
2018-07-08T01:37:57.968Z,0.00
2018-07-08T01:38:57.967Z,0.00
2018-07-08T01:39:57.970Z,0.00
2018-07-08T01:40:57.968Z,0.00
2018-07-08T01:41:57.967Z,0.00
2018-07-08T01:42:57.968Z,0.00
2018-07-08T01:43:57.967Z,0.00
2018-07-08T01:44:57.967Z,0.00
2018-07-08T01:45:57.966Z,0.00
2018-07-08T01:46:57.974Z,0.00
2018-07-08T01:47:57.967Z,0.00
2018-07-08T01:48:57.969Z,0.00
2018-07-08T01:49:57.966Z,0.00
2018-07-08T01:50:57.966Z,0.00
2018-07-08T01:51:57.966Z,0.00
2018-07-08T01:52:57.967Z,0.00
2018-07-08T01:53:57.967Z,0.00
2018-07-08T01:54:57.965Z,0.00
2018-07-08T01:55:57.966Z,0.00
2018-07-08T01:56:57.965Z,0.00
2018-07-08T01:57:57.965Z,0.00
2018-07-08T01:58:57.964Z,0.00
2018-07-08T01:59:57.968Z,0.00
2018-07-08T02:00:57.966Z,0.00
2018-07-08T02:01:57.964Z,0.00
2018-07-08T02:02:57.965Z,0.00
2018-07-08T02:03:57.965Z,0.00
2018-07-08T02:04:57.964Z,0.00
2018-07-08T02:05:57.965Z,0.00
2018-07-08T02:06:57.978Z,0.00
2018-07-08T02:07:57.964Z,0.00
2018-07-08T02:08:57.964Z,0.00
2018-07-08T02:09:57.962Z,0.00
2018-07-08T02:10:57.965Z,0.00
2018-07-08T02:11:57.963Z,0.00
2018-07-08T02:12:57.962Z,0.00
2018-07-08T02:13:57.962Z,0.00
2018-07-08T02:14:57.963Z,0.00
2018-07-08T02:15:57.961Z,0.00
2018-07-08T02:16:57.965Z,0.00
2018-07-08T02:17:57.965Z,0.00
2018-07-08T02:18:57.963Z,0.00
2018-07-08T02:19:57.963Z,0.00
2018-07-08T02:20:57.965Z,0.00
2018-07-08T02:21:57.959Z,0.00
2018-07-08T02:22:57.960Z,0.00
2018-07-08T02:23:57.960Z,0.00
2018-07-08T02:24:57.960Z,0.00
2018-07-08T02:25:57.959Z,0.00
2018-07-08T02:26:57.960Z,0.00
2018-07-08T02:27:57.960Z,0.00
2018-07-08T02:28:57.958Z,0.00
2018-07-08T02:29:57.958Z,0.00
2018-07-08T02:30:57.963Z,0.00
2018-07-08T02:31:57.958Z,0.00
2018-07-08T02:32:57.958Z,0.00
2018-07-08T02:33:57.957Z,0.00
2018-07-08T02:34:57.958Z,0.00
2018-07-08T02:35:57.957Z,0.00
2018-07-08T02:36:57.957Z,0.00
2018-07-08T02:37:57.956Z,0.00
2018-07-08T02:38:57.956Z,0.00
2018-07-08T02:39:57.957Z,0.00
2018-07-08T02:40:57.957Z,0.00
2018-07-08T02:41:57.957Z,0.00
2018-07-08T02:42:57.956Z,0.00
2018-07-08T02:43:57.957Z,0.00
2018-07-08T02:44:57.955Z,0.00
2018-07-08T02:45:57.953Z,0.00
2018-07-08T02:46:57.955Z,0.00
2018-07-08T02:47:57.956Z,0.00
2018-07-08T02:48:57.955Z,0.00
2018-07-08T02:49:57.954Z,0.00
2018-07-08T02:50:57.959Z,0.00
2018-07-08T02:51:57.960Z,0.00
2018-07-08T02:52:57.954Z,0.00
2018-07-08T02:53:57.957Z,0.00
2018-07-08T02:54:57.953Z,0.00
2018-07-08T02:55:57.953Z,0.00
2018-07-08T02:56:57.956Z,0.00
2018-07-08T02:57:57.952Z,0.00
2018-07-08T02:58:57.956Z,0.00
2018-07-08T02:59:57.954Z,0.00
2018-07-08T03:00:57.955Z,0.00
2018-07-08T03:01:57.951Z,0.00
2018-07-08T03:02:57.951Z,0.00
2018-07-08T03:03:57.952Z,0.00
2018-07-08T03:04:57.952Z,0.00
2018-07-08T03:05:57.950Z,0.00
2018-07-08T03:06:57.951Z,0.00
2018-07-08T03:07:57.955Z,0.00
2018-07-08T03:08:57.950Z,0.00
2018-07-08T03:09:57.953Z,0.00
2018-07-08T03:10:57.950Z,0.00
2018-07-08T03:11:57.949Z,0.00
2018-07-08T03:12:57.950Z,0.00
2018-07-08T03:13:57.949Z,0.00
2018-07-08T03:14:57.950Z,0.00
2018-07-08T03:15:57.948Z,0.00
2018-07-08T03:16:57.949Z,0.00
2018-07-08T03:17:57.947Z,0.00
2018-07-08T03:18:57.947Z,0.00
2018-07-08T03:19:57.948Z,0.00
2018-07-08T03:20:57.950Z,0.00
2018-07-08T03:21:57.946Z,0.00
2018-07-08T03:22:57.947Z,0.00
2018-07-08T03:23:57.945Z,0.00
2018-07-08T03:24:57.944Z,0.00
2018-07-08T03:25:57.944Z,0.00
2018-07-08T03:26:57.956Z,0.00
2018-07-08T03:27:57.944Z,0.00
2018-07-08T03:28:57.945Z,0.00
2018-07-08T03:29:57.943Z,0.00
2018-07-08T03:30:57.943Z,0.00
2018-07-08T03:31:57.946Z,0.00
2018-07-08T03:32:57.942Z,0.00
2018-07-08T03:33:57.942Z,0.00
2018-07-08T03:34:57.945Z,0.00
2018-07-08T03:35:57.941Z,0.00
2018-07-08T03:36:57.940Z,0.00
2018-07-08T03:37:57.939Z,0.00
2018-07-08T03:38:57.940Z,0.00
2018-07-08T03:39:57.938Z,0.00
2018-07-08T03:40:57.939Z,0.00
2018-07-08T03:41:57.937Z,0.00
2018-07-08T03:42:57.938Z,5.63
2018-07-08T03:43:57.938Z,5.63
2018-07-08T03:44:57.938Z,5.63
2018-07-08T03:45:57.937Z,5.63
2018-07-08T03:46:57.936Z,5.63
2018-07-08T03:47:57.936Z,5.63
2018-07-08T03:48:57.936Z,5.63
2018-07-08T03:49:57.935Z,5.63
2018-07-08T03:50:57.935Z,5.63
2018-07-08T03:51:57.934Z,5.63
2018-07-08T03:52:57.933Z,5.63
2018-07-08T03:53:57.933Z,5.63
2018-07-08T03:54:57.932Z,5.63
2018-07-08T03:55:57.932Z,5.63
2018-07-08T03:56:57.932Z,5.63
2018-07-08T03:57:57.931Z,5.63
2018-07-08T03:58:57.930Z,5.63
2018-07-08T03:59:57.931Z,11.25
2018-07-08T04:00:57.930Z,11.25
2018-07-08T04:01:57.929Z,11.25
2018-07-08T04:02:57.933Z,11.25
2018-07-08T04:03:57.929Z,11.25
2018-07-08T04:04:57.930Z,11.25
2018-07-08T04:05:57.928Z,11.25
2018-07-08T04:06:57.928Z,11.25
2018-07-08T04:07:57.927Z,11.25
2018-07-08T04:08:57.930Z,16.88
2018-07-08T04:09:57.926Z,16.88
2018-07-08T04:10:57.930Z,16.88
2018-07-08T04:11:57.927Z,16.88
2018-07-08T04:12:57.929Z,16.88
2018-07-08T04:13:57.925Z,16.88
2018-07-08T04:14:57.924Z,16.88
2018-07-08T04:15:57.924Z,16.88
2018-07-08T04:16:57.924Z,16.88
2018-07-08T04:17:57.924Z,16.88
2018-07-08T04:18:57.924Z,22.50
2018-07-08T04:19:57.923Z,22.50
2018-07-08T04:20:57.924Z,22.50
2018-07-08T04:21:57.926Z,22.50
2018-07-08T04:22:57.922Z,22.50
2018-07-08T04:23:57.923Z,22.50
2018-07-08T04:24:57.923Z,22.50
2018-07-08T04:25:57.923Z,22.50
2018-07-08T04:26:57.921Z,22.50
2018-07-08T04:27:57.921Z,22.50
2018-07-08T04:28:57.923Z,22.50
2018-07-08T04:29:57.920Z,22.50
2018-07-08T04:30:57.920Z,28.13
2018-07-08T04:31:57.920Z,28.13
2018-07-08T04:32:57.921Z,28.13
2018-07-08T04:33:57.920Z,33.75
2018-07-08T04:34:57.919Z,33.75
2018-07-08T04:35:57.920Z,33.75
2018-07-08T04:36:57.920Z,33.75
2018-07-08T04:37:57.920Z,33.75
2018-07-08T04:38:57.919Z,33.75
2018-07-08T04:39:57.918Z,39.38
2018-07-08T04:40:57.917Z,39.38
2018-07-08T04:41:57.917Z,39.38
2018-07-08T04:42:57.919Z,39.38
2018-07-08T04:43:57.916Z,39.38
2018-07-08T04:44:57.916Z,39.38
2018-07-08T04:45:57.916Z,39.38
2018-07-08T04:46:57.916Z,39.38
2018-07-08T04:47:57.917Z,33.75
2018-07-08T04:48:57.916Z,33.75
2018-07-08T04:49:57.915Z,33.75
2018-07-08T04:50:57.916Z,33.75
2018-07-08T04:51:57.916Z,33.75
2018-07-08T04:52:57.918Z,33.75
2018-07-08T04:53:57.917Z,33.75
2018-07-08T04:54:57.914Z,33.75
2018-07-08T04:55:57.915Z,33.75
2018-07-08T04:56:57.915Z,33.75
2018-07-08T04:57:57.914Z,33.75
2018-07-08T04:58:57.914Z,33.75
2018-07-08T04:59:57.915Z,33.75
2018-07-08T05:00:57.922Z,39.38
2018-07-08T05:01:57.913Z,39.38
2018-07-08T05:02:57.914Z,39.38
2018-07-08T05:03:57.913Z,39.38
2018-07-08T05:04:57.913Z,39.38
2018-07-08T05:05:57.912Z,39.38
2018-07-08T05:06:57.912Z,45.00
2018-07-08T05:07:57.912Z,45.00
2018-07-08T05:08:57.913Z,45.00
2018-07-08T05:09:57.912Z,45.00
2018-07-08T05:10:57.912Z,45.00
2018-07-08T05:11:57.912Z,45.00
2018-07-08T05:12:57.912Z,45.00
2018-07-08T05:13:57.911Z,45.00
2018-07-08T05:14:57.912Z,50.63
2018-07-08T05:15:57.912Z,50.63
2018-07-08T05:16:57.911Z,56.25
2018-07-08T05:17:57.910Z,56.25
2018-07-08T05:18:57.911Z,56.25
2018-07-08T05:19:57.911Z,50.63
2018-07-08T05:20:57.911Z,50.63
2018-07-08T05:21:57.911Z,45.00
2018-07-08T05:22:57.911Z,45.00
2018-07-08T05:23:57.911Z,45.00
2018-07-08T05:24:57.911Z,45.00
2018-07-08T05:25:57.910Z,50.63
2018-07-08T05:26:57.911Z,50.63
2018-07-08T05:27:57.911Z,50.63
2018-07-08T05:28:57.911Z,45.00
2018-07-08T05:29:57.912Z,45.00
2018-07-08T05:30:57.911Z,45.00
2018-07-08T05:31:57.911Z,45.00
2018-07-08T05:32:57.912Z,39.38
2018-07-08T05:33:57.914Z,39.38
2018-07-08T05:34:57.912Z,39.38
2018-07-08T05:35:57.911Z,45.00
2018-07-08T05:36:57.912Z,50.63
2018-07-08T05:37:57.912Z,56.25
2018-07-08T05:38:57.912Z,67.50
2018-07-08T05:39:57.912Z,67.50
2018-07-08T05:40:57.913Z,73.13
2018-07-08T05:41:57.913Z,73.13
2018-07-08T05:42:57.913Z,78.75
2018-07-08T05:43:57.914Z,73.13
2018-07-08T05:44:57.915Z,73.13
2018-07-08T05:45:57.913Z,78.75
2018-07-08T05:46:57.913Z,78.75
2018-07-08T05:47:57.916Z,73.13
2018-07-08T05:48:57.914Z,73.13
2018-07-08T05:49:57.914Z,67.50
2018-07-08T05:50:57.914Z,73.13
2018-07-08T05:51:57.916Z,73.13
2018-07-08T05:52:57.916Z,78.75
2018-07-08T05:53:57.915Z,78.75
2018-07-08T05:54:57.916Z,73.13
2018-07-08T05:55:57.916Z,67.50
2018-07-08T05:56:57.921Z,73.13
2018-07-08T05:57:57.918Z,73.13
2018-07-08T05:58:57.919Z,67.50
2018-07-08T05:59:57.919Z,73.13
2018-07-08T06:00:57.919Z,73.13
2018-07-08T06:01:57.919Z,73.13
2018-07-08T06:02:57.920Z,78.75
2018-07-08T06:03:57.921Z,73.13
2018-07-08T06:04:57.921Z,73.13
2018-07-08T06:05:57.921Z,67.50
2018-07-08T06:06:57.921Z,67.50
2018-07-08T06:07:57.922Z,67.50
2018-07-08T06:08:57.923Z,67.50
2018-07-08T06:09:57.925Z,67.50
2018-07-08T06:10:57.925Z,67.50
2018-07-08T06:11:57.926Z,61.88
2018-07-08T06:12:57.928Z,61.88
2018-07-08T06:13:57.928Z,61.88
2018-07-08T06:14:57.926Z,73.13
2018-07-08T06:15:57.930Z,73.13
2018-07-08T06:16:57.963Z,84.38
2018-07-08T06:17:57.926Z,90.00
2018-07-08T06:18:57.928Z,95.63
2018-07-08T06:19:57.929Z,95.63
2018-07-08T06:20:57.929Z,101.25
2018-07-08T06:21:57.930Z,101.25
2018-07-08T06:22:57.931Z,95.63
2018-07-08T06:23:57.932Z,90.00
2018-07-08T06:24:57.935Z,90.00
2018-07-08T06:25:57.988Z,90.00
2018-07-08T06:26:57.933Z,90.00
2018-07-08T06:27:57.934Z,90.00
2018-07-08T06:28:57.935Z,90.00
2018-07-08T06:29:57.934Z,90.00
2018-07-08T06:30:57.935Z,90.00
2018-07-08T06:31:57.937Z,90.00
2018-07-08T06:32:57.937Z,95.63
2018-07-08T06:33:57.939Z,101.25
2018-07-08T06:34:57.938Z,106.88
2018-07-08T06:35:57.942Z,112.50
2018-07-08T06:36:57.942Z,112.50
2018-07-08T06:37:57.939Z,118.13
2018-07-08T06:38:57.942Z,118.13
2018-07-08T06:39:57.944Z,118.13
2018-07-08T06:40:57.945Z,123.75
2018-07-08T06:41:57.944Z,151.88
2018-07-08T06:42:57.946Z,140.63
2018-07-08T06:43:57.948Z,140.63
2018-07-08T06:44:57.947Z,135.00
2018-07-08T06:45:57.950Z,135.00
2018-07-08T06:46:57.950Z,135.00
2018-07-08T06:47:57.952Z,135.00
2018-07-08T06:48:57.953Z,151.88
2018-07-08T06:49:57.953Z,151.88
2018-07-08T06:50:57.955Z,157.50
2018-07-08T06:51:58.012Z,157.50
2018-07-08T06:52:57.958Z,168.75
2018-07-08T06:53:57.959Z,146.25
2018-07-08T06:54:57.960Z,140.63
2018-07-08T06:55:57.961Z,140.63
2018-07-08T06:56:57.963Z,135.00
2018-07-08T06:57:58.083Z,129.38
2018-07-08T06:58:57.965Z,129.38
2018-07-08T06:59:57.966Z,129.38
2018-07-08T07:00:57.969Z,123.75
2018-07-08T07:01:57.969Z,129.38
2018-07-08T07:02:57.974Z,129.38
2018-07-08T07:03:57.972Z,135.00
2018-07-08T07:04:57.976Z,146.25
2018-07-08T07:05:57.975Z,163.13
2018-07-08T07:06:57.977Z,180.00
2018-07-08T07:07:57.983Z,196.88
2018-07-08T07:08:57.984Z,208.13
2018-07-08T07:09:57.981Z,230.63
2018-07-08T07:10:57.983Z,219.38
2018-07-08T07:11:57.985Z,213.75
2018-07-08T07:12:57.987Z,236.25
2018-07-08T07:13:57.988Z,253.13
2018-07-08T07:14:57.990Z,219.38
2018-07-08T07:15:57.993Z,225.00
2018-07-08T07:16:57.995Z,219.38
2018-07-08T07:17:57.997Z,208.13
2018-07-08T07:18:57.999Z,202.50
2018-07-08T07:19:58.001Z,208.13
2018-07-08T07:20:58.003Z,247.50
2018-07-08T07:21:58.004Z,236.25
2018-07-08T07:22:58.026Z,219.38
2018-07-08T07:23:58.009Z,202.50
2018-07-08T07:24:58.011Z,196.88
2018-07-08T07:25:58.012Z,213.75
2018-07-08T07:26:58.015Z,225.00
2018-07-08T07:27:58.018Z,191.25
2018-07-08T07:28:58.020Z,168.75
2018-07-08T07:29:58.022Z,163.13
2018-07-08T07:30:58.026Z,168.75
2018-07-08T07:31:58.030Z,174.38
2018-07-08T07:32:58.031Z,180.00
2018-07-08T07:33:58.032Z,253.13
2018-07-08T07:34:58.033Z,230.63
2018-07-08T07:35:58.037Z,292.50
2018-07-08T07:36:58.068Z,213.75
2018-07-08T07:37:58.071Z,714.38
2018-07-08T07:38:58.043Z,225.00
2018-07-08T07:39:58.048Z,180.00
2018-07-08T07:40:58.055Z,163.13
2018-07-08T07:41:58.169Z,151.88
2018-07-08T07:42:58.054Z,146.25
2018-07-08T07:43:58.059Z,146.25
2018-07-08T07:44:58.064Z,168.75
2018-07-08T07:45:58.065Z,185.63
2018-07-08T07:46:58.065Z,208.13
2018-07-08T07:47:58.069Z,202.50
2018-07-08T07:48:58.073Z,202.50
2018-07-08T07:49:58.075Z,230.63
2018-07-08T07:50:58.077Z,202.50
2018-07-08T07:51:58.079Z,191.25
2018-07-08T07:52:58.084Z,185.63
2018-07-08T07:53:58.085Z,208.13
2018-07-08T07:54:58.088Z,478.13
2018-07-08T07:55:58.091Z,281.25
2018-07-08T07:56:58.096Z,208.13
2018-07-08T07:57:58.095Z,185.63
2018-07-08T07:58:58.130Z,185.63
2018-07-08T07:59:58.103Z,180.00
2018-07-08T08:00:58.106Z,174.38
2018-07-08T08:01:58.110Z,180.00
2018-07-08T08:02:58.111Z,185.63
2018-07-08T08:03:58.115Z,202.50
2018-07-08T08:04:58.118Z,770.63
2018-07-08T08:05:58.120Z,618.75
2018-07-08T08:06:58.123Z,281.25
2018-07-08T08:07:58.127Z,185.63
2018-07-08T08:08:58.132Z,163.13
2018-07-08T08:09:58.133Z,163.13
2018-07-08T08:10:58.137Z,196.88
2018-07-08T08:11:58.141Z,1586.25
2018-07-08T08:12:58.145Z,1530.00
2018-07-08T08:13:58.212Z,376.88
2018-07-08T08:14:58.153Z,253.13
2018-07-08T08:15:58.157Z,202.50
2018-07-08T08:16:58.161Z,180.00
2018-07-08T08:17:58.165Z,163.13
2018-07-08T08:18:58.173Z,146.25
2018-07-08T08:19:58.178Z,146.25
2018-07-08T08:20:58.225Z,146.25
2018-07-08T08:21:58.182Z,146.25
2018-07-08T08:22:58.186Z,146.25
2018-07-08T08:23:58.195Z,146.25
2018-07-08T08:24:58.195Z,151.88
2018-07-08T08:25:58.197Z,163.13
2018-07-08T08:26:58.201Z,191.25
2018-07-08T08:27:58.205Z,236.25
2018-07-08T08:28:58.209Z,331.88
2018-07-08T08:29:58.212Z,219.38
2018-07-08T08:30:58.216Z,196.88
2018-07-08T08:31:59.086Z,196.88
2018-07-08T08:32:58.224Z,219.38
2018-07-08T08:33:58.227Z,219.38
2018-07-08T08:34:58.230Z,208.13
2018-07-08T08:35:58.234Z,202.50
2018-07-08T08:36:58.238Z,225.00
2018-07-08T08:37:58.240Z,275.63
2018-07-08T08:38:58.259Z,331.88
2018-07-08T08:39:58.249Z,298.13
2018-07-08T08:40:58.549Z,270.00
2018-07-08T08:41:58.257Z,275.63
2018-07-08T08:42:58.610Z,326.25
2018-07-08T08:43:58.263Z,1355.63
2018-07-08T08:44:58.269Z,736.88
2018-07-08T08:45:58.324Z,399.38
2018-07-08T08:46:58.278Z,1738.13
2018-07-08T08:47:58.281Z,1625.63
2018-07-08T08:48:58.349Z,1625.63
2018-07-08T08:49:58.295Z,1575.00
2018-07-08T08:50:58.295Z,1423.13
2018-07-08T08:51:58.303Z,1395.00
2018-07-08T08:52:58.312Z,1462.50
2018-07-08T08:53:58.617Z,1546.88
2018-07-08T08:54:58.324Z,1434.38
2018-07-08T08:55:58.332Z,770.63
2018-07-08T08:56:58.340Z,551.25
2018-07-08T08:57:58.494Z,1490.63
2018-07-08T08:58:58.747Z,1524.38
2018-07-08T08:59:58.365Z,1614.38
2018-07-08T09:00:58.374Z,1530.00
2018-07-08T09:01:58.820Z,1608.75
2018-07-08T09:02:58.392Z,1653.75
2018-07-08T09:03:58.551Z,1625.63
2018-07-08T09:04:58.654Z,1642.50
2018-07-08T09:05:58.420Z,1338.75
2018-07-08T09:06:58.455Z,1530.00
2018-07-08T09:07:58.442Z,1603.13
2018-07-08T09:08:58.452Z,450.00
2018-07-08T09:09:58.465Z,337.50
2018-07-08T09:10:58.563Z,292.50
2018-07-08T09:11:58.483Z,247.50
2018-07-08T09:12:58.497Z,219.38
2018-07-08T09:13:58.675Z,225.00
2018-07-08T09:14:58.828Z,258.75
2018-07-08T09:15:58.927Z,303.75
2018-07-08T09:16:58.788Z,360.00
2018-07-08T09:17:58.765Z,326.25
2018-07-08T09:18:58.841Z,315.00
2018-07-08T09:19:58.770Z,371.25
2018-07-08T09:20:59.004Z,382.50
2018-07-08T09:21:58.805Z,337.50
2018-07-08T09:22:58.572Z,298.13
2018-07-08T09:23:58.622Z,461.25
2018-07-08T09:24:58.588Z,360.00
2018-07-08T09:25:58.593Z,517.50
2018-07-08T09:26:58.828Z,286.88
2018-07-08T09:27:58.990Z,309.38
2018-07-08T09:28:58.912Z,258.75
2018-07-08T09:29:58.620Z,241.88
2018-07-08T09:30:58.628Z,236.25
2018-07-08T09:31:58.938Z,225.00
2018-07-08T09:32:58.971Z,225.00
2018-07-08T09:33:58.965Z,225.00
2018-07-08T09:34:58.958Z,219.38
2018-07-08T09:35:58.659Z,219.38
2018-07-08T09:36:58.677Z,236.25
2018-07-08T09:37:58.951Z,275.63
2018-07-08T09:38:58.862Z,579.38
2018-07-08T09:39:58.683Z,995.63
2018-07-08T09:40:58.691Z,843.75
2018-07-08T09:41:58.696Z,607.50
2018-07-08T09:42:58.704Z,725.63
2018-07-08T09:43:58.711Z,1108.13
2018-07-08T09:44:58.717Z,1186.88
2018-07-08T09:45:58.740Z,1175.63
2018-07-08T09:46:58.731Z,1102.50
2018-07-08T09:47:59.032Z,1130.63
2018-07-08T09:48:58.753Z,1164.38
2018-07-08T09:49:58.757Z,1164.38
2018-07-08T09:50:58.767Z,1209.38
2018-07-08T09:51:58.777Z,1051.88
2018-07-08T09:52:58.787Z,399.38
2018-07-08T09:53:58.796Z,1265.63
2018-07-08T09:54:58.804Z,1170.00
2018-07-08T09:55:58.816Z,1209.38
2018-07-08T09:56:58.827Z,281.25
2018-07-08T09:57:58.848Z,230.63
2018-07-08T09:58:58.846Z,196.88
2018-07-08T09:59:58.859Z,168.75
2018-07-08T10:00:58.865Z,135.00
2018-07-08T10:01:58.875Z,106.88
2018-07-08T10:02:58.884Z,101.25
2018-07-08T10:03:58.892Z,90.00
2018-07-08T10:04:58.911Z,90.00
2018-07-08T10:05:58.908Z,90.00
2018-07-08T10:06:58.917Z,90.00
2018-07-08T10:07:58.925Z,101.25
2018-07-08T10:08:58.933Z,123.75
2018-07-08T10:09:58.942Z,135.00
2018-07-08T10:10:59.005Z,140.63
2018-07-08T10:11:58.953Z,157.50
2018-07-08T10:12:58.960Z,174.38
2018-07-08T10:13:59.032Z,191.25
2018-07-08T10:14:58.974Z,208.13
2018-07-08T10:15:58.980Z,230.63
2018-07-08T10:16:58.987Z,326.25
2018-07-08T10:17:58.995Z,652.50
2018-07-08T10:18:59.000Z,686.25
2018-07-08T10:19:59.057Z,703.13
2018-07-08T10:20:59.014Z,528.75
2018-07-08T10:21:59.020Z,236.25
2018-07-08T10:22:59.029Z,258.75
2018-07-08T10:23:59.035Z,236.25
2018-07-08T10:24:59.044Z,213.75
2018-07-08T10:25:59.049Z,303.75
2018-07-08T10:26:59.057Z,303.75
2018-07-08T10:27:59.065Z,438.75
2018-07-08T10:28:59.073Z,421.88
2018-07-08T10:29:59.079Z,438.75
2018-07-08T10:30:59.089Z,438.75
2018-07-08T10:31:59.096Z,444.38
2018-07-08T10:32:59.108Z,421.88
2018-07-08T10:33:59.617Z,320.63
2018-07-08T10:34:59.121Z,331.88
2018-07-08T10:35:59.130Z,326.25
2018-07-08T10:36:59.143Z,258.75
2018-07-08T10:37:59.147Z,275.63
2018-07-08T10:38:59.156Z,388.13
2018-07-08T10:39:59.164Z,388.13
2018-07-08T10:40:59.174Z,365.63
2018-07-08T10:41:59.181Z,315.00
2018-07-08T10:42:59.190Z,309.38
2018-07-08T10:43:59.198Z,326.25
2018-07-08T10:44:59.208Z,348.75
2018-07-08T10:45:59.214Z,264.38
2018-07-08T10:46:59.225Z,270.00
2018-07-08T10:47:59.231Z,376.88
2018-07-08T10:48:59.240Z,455.63
2018-07-08T10:49:59.294Z,483.75
2018-07-08T10:50:59.257Z,337.50
2018-07-08T10:51:59.265Z,320.63
2018-07-08T10:52:59.275Z,450.00
2018-07-08T10:53:59.287Z,438.75
2018-07-08T10:54:59.290Z,247.50
2018-07-08T10:55:59.300Z,230.63
2018-07-08T10:56:59.310Z,275.63
2018-07-08T10:57:59.318Z,286.88
2018-07-08T10:58:59.326Z,241.88
2018-07-08T10:59:59.335Z,208.13
2018-07-08T11:00:59.343Z,196.88
2018-07-08T11:01:59.352Z,191.25
2018-07-08T11:02:59.359Z,196.88
2018-07-08T11:03:59.367Z,196.88
2018-07-08T11:04:59.375Z,174.38
2018-07-08T11:05:59.382Z,151.88
2018-07-08T11:06:59.394Z,140.63
2018-07-08T11:07:59.397Z,140.63
2018-07-08T11:08:59.404Z,129.38
2018-07-08T11:09:59.409Z,118.13
2018-07-08T11:10:59.418Z,106.88
2018-07-08T11:11:59.426Z,101.25
2018-07-08T11:12:59.433Z,101.25
2018-07-08T11:13:59.439Z,112.50
2018-07-08T11:14:59.450Z,118.13
2018-07-08T11:15:59.453Z,118.13
2018-07-08T11:16:59.459Z,118.13
2018-07-08T11:17:59.463Z,123.75
2018-07-08T11:18:59.471Z,129.38
2018-07-08T11:19:59.476Z,135.00
2018-07-08T11:20:59.521Z,135.00
2018-07-08T11:21:59.488Z,151.88
2018-07-08T11:22:59.495Z,168.75
2018-07-08T11:23:59.501Z,180.00
2018-07-08T11:24:59.508Z,196.88
2018-07-08T11:25:59.513Z,264.38
2018-07-08T11:26:59.519Z,298.13
2018-07-08T11:27:59.525Z,320.63
2018-07-08T11:28:59.530Z,438.75
2018-07-08T11:29:59.540Z,455.63
2018-07-08T11:30:59.542Z,371.25
2018-07-08T11:31:59.549Z,506.25
2018-07-08T11:32:59.554Z,500.63
2018-07-08T11:33:59.561Z,483.75
2018-07-08T11:34:59.569Z,410.63
2018-07-08T11:35:59.575Z,399.38
2018-07-08T11:36:59.586Z,331.88
2018-07-08T11:37:59.591Z,455.63
2018-07-08T11:38:59.600Z,495.00
2018-07-08T11:39:59.607Z,495.00
2018-07-08T11:40:59.616Z,410.63
2018-07-08T11:41:59.623Z,399.38
2018-07-08T11:42:59.717Z,320.63
2018-07-08T11:43:59.639Z,253.13
2018-07-08T11:44:59.648Z,236.25
2018-07-08T11:45:59.655Z,219.38
2018-07-08T11:46:59.664Z,196.88
2018-07-08T11:47:59.675Z,185.63
2018-07-08T11:48:59.680Z,168.75
2018-07-08T11:49:59.768Z,168.75
2018-07-08T11:50:59.695Z,174.38
2018-07-08T11:51:59.704Z,180.00
2018-07-08T11:52:59.715Z,185.63
2018-07-08T11:53:59.715Z,180.00
2018-07-08T11:54:59.724Z,180.00
2018-07-08T11:55:59.732Z,208.13
2018-07-08T11:56:59.739Z,208.13
2018-07-08T11:57:59.746Z,191.25
2018-07-08T11:58:59.752Z,174.38
2018-07-08T11:59:59.761Z,163.13
2018-07-08T12:01:00.106Z,174.38
2018-07-08T12:02:00.116Z,286.88
2018-07-08T12:03:00.065Z,208.13
2018-07-08T12:04:00.211Z,191.25
2018-07-08T12:05:00.217Z,163.13
2018-07-08T12:05:59.973Z,140.63
2018-07-08T12:06:59.806Z,123.75
2018-07-08T12:08:00.103Z,106.88
2018-07-08T12:08:59.875Z,90.00
2018-07-08T12:09:59.824Z,78.75
2018-07-08T12:10:59.835Z,73.13
2018-07-08T12:11:59.838Z,73.13
2018-07-08T12:12:59.844Z,84.38
2018-07-08T12:13:59.850Z,90.00
2018-07-08T12:14:59.856Z,90.00
2018-07-08T12:15:59.862Z,90.00
2018-07-08T12:16:59.869Z,78.75
2018-07-08T12:17:59.873Z,67.50
2018-07-08T12:18:59.880Z,61.88
2018-07-08T12:19:59.886Z,56.25
2018-07-08T12:20:59.893Z,56.25
2018-07-08T12:21:59.895Z,56.25
2018-07-08T12:22:59.902Z,61.88
2018-07-08T12:23:59.907Z,78.75
2018-07-08T12:24:59.912Z,95.63
2018-07-08T12:25:59.917Z,106.88
2018-07-08T12:26:59.923Z,118.13
2018-07-08T12:27:59.929Z,123.75
2018-07-08T12:28:59.933Z,123.75
2018-07-08T12:29:59.940Z,123.75
2018-07-08T12:30:59.943Z,140.63
2018-07-08T12:31:59.949Z,135.00
2018-07-08T12:32:59.958Z,135.00
2018-07-08T12:33:59.960Z,168.75
2018-07-08T12:34:59.964Z,191.25
2018-07-08T12:35:59.970Z,225.00
2018-07-08T12:36:59.975Z,343.13
2018-07-08T12:37:59.980Z,286.88
2018-07-08T12:38:59.986Z,365.63
2018-07-08T12:39:59.991Z,461.25
2018-07-08T12:40:59.998Z,455.63
2018-07-08T12:42:00.002Z,450.00
2018-07-08T12:43:00.015Z,303.75
2018-07-08T12:44:00.055Z,247.50
2018-07-08T12:45:00.025Z,219.38
2018-07-08T12:46:00.030Z,202.50
2018-07-08T12:47:00.034Z,208.13
2018-07-08T12:48:00.043Z,196.88